createdAt,value
2018-05-26T00:01:05.839Z,3.60
2018-05-26T00:03:32.755Z,3.83
2018-05-26T00:05:59.632Z,4.13
2018-05-26T00:08:26.512Z,3.63
2018-05-26T00:10:53.396Z,3.80
2018-05-26T00:13:20.270Z,4.00
2018-05-26T00:15:47.222Z,4.00
2018-05-26T00:18:14.145Z,3.90
2018-05-26T00:20:41.096Z,3.93
2018-05-26T00:23:07.986Z,4.20
2018-05-26T00:25:34.890Z,4.50
2018-05-26T00:28:01.814Z,3.90
2018-05-26T00:30:28.717Z,3.83
2018-05-26T00:32:55.612Z,4.80
2018-05-26T00:35:22.482Z,4.27
2018-05-26T00:37:50.093Z,3.97
2018-05-26T00:40:16.972Z,3.83
2018-05-26T00:42:43.853Z,4.40
2018-05-26T00:45:10.721Z,4.00
2018-05-26T00:47:37.597Z,4.10
2018-05-26T00:50:04.481Z,3.60
2018-05-26T00:52:31.368Z,4.10
2018-05-26T00:54:58.252Z,4.00
2018-05-26T00:57:25.180Z,3.90
2018-05-26T00:59:52.806Z,4.20
2018-05-26T01:02:19.694Z,4.50
2018-05-26T01:04:46.618Z,4.00
2018-05-26T01:07:13.488Z,3.97
2018-05-26T01:09:41.124Z,4.60
2018-05-26T01:12:08.000Z,3.90
2018-05-26T01:14:34.881Z,4.20
2018-05-26T01:17:01.770Z,3.57
2018-05-26T01:19:28.999Z,4.53
2018-05-26T01:21:55.942Z,3.70
2018-05-26T01:24:22.833Z,4.47
2018-05-26T01:26:49.703Z,3.70
2018-05-26T01:29:16.577Z,4.03
2018-05-26T01:31:43.465Z,4.10
2018-05-26T01:34:10.342Z,4.57
2018-05-26T01:36:37.225Z,4.23
2018-05-26T01:39:04.225Z,4.40
2018-05-26T01:41:31.101Z,4.67
2018-05-26T01:43:57.996Z,3.90
2018-05-26T01:46:24.876Z,3.80
2018-05-26T01:48:51.761Z,4.23
2018-05-26T01:51:19.421Z,4.37
2018-05-26T01:53:46.316Z,4.10
2018-05-26T01:56:13.210Z,3.73
2018-05-26T01:58:40.843Z,3.73
2018-05-26T02:01:07.721Z,4.33
2018-05-26T02:03:35.346Z,4.00
2018-05-26T02:06:02.229Z,4.03
2018-05-26T02:08:29.113Z,4.10
2018-05-26T02:10:55.983Z,3.73
2018-05-26T02:13:22.917Z,4.30
2018-05-26T02:15:49.793Z,4.32
2018-05-26T02:18:17.412Z,4.23
2018-05-26T02:20:44.329Z,3.83
2018-05-26T02:23:11.249Z,4.40
2018-05-26T02:25:38.120Z,4.37
2018-05-26T02:28:05.005Z,4.00
2018-05-26T02:30:31.881Z,3.72
2018-05-26T02:32:58.759Z,4.17
2018-05-26T02:35:25.651Z,4.27
2018-05-26T02:37:52.529Z,3.67
2018-05-26T02:40:19.426Z,3.90
2018-05-26T02:42:46.305Z,3.67
2018-05-26T02:45:13.213Z,4.20
2018-05-26T02:47:40.091Z,4.07
2018-05-26T02:50:06.957Z,4.13
2018-05-26T02:52:33.824Z,3.80
2018-05-26T02:55:00.724Z,4.27
2018-05-26T02:57:27.595Z,4.47
2018-05-26T02:59:54.483Z,4.30
2018-05-26T03:02:22.094Z,4.00
2018-05-26T03:04:55.010Z,4.07
2018-05-26T03:07:27.788Z,4.47
2018-05-26T03:10:00.601Z,4.33
2018-05-26T03:12:34.064Z,4.67
2018-05-26T03:15:01.072Z,4.50
2018-05-26T03:17:34.885Z,4.53
2018-05-26T03:20:01.849Z,4.27
2018-05-26T03:22:28.777Z,4.17
2018-05-26T03:24:55.673Z,4.13
2018-05-26T03:27:23.293Z,4.33
2018-05-26T03:29:50.164Z,5.20
2018-05-26T03:32:17.046Z,4.60
2018-05-26T03:34:43.920Z,4.70
2018-05-26T03:37:10.805Z,4.83
2018-05-26T03:39:37.680Z,4.50
2018-05-26T03:42:04.584Z,4.57
2018-05-26T03:44:31.467Z,4.37
2018-05-26T03:46:58.340Z,4.87
2018-05-26T03:49:25.212Z,5.37
2018-05-26T03:51:52.090Z,5.20
2018-05-26T03:54:19.216Z,4.53
2018-05-26T03:56:57.990Z,5.27
2018-05-26T03:59:36.816Z,5.97
2018-05-26T04:02:03.821Z,5.50
2018-05-26T04:04:31.053Z,4.90
2018-05-26T04:06:57.923Z,4.87
2018-05-26T04:09:24.796Z,5.17
2018-05-26T04:11:52.606Z,5.23
2018-05-26T04:14:19.494Z,4.70
2018-05-26T04:16:46.372Z,5.30
2018-05-26T04:19:13.267Z,4.80
2018-05-26T04:21:40.132Z,4.93
2018-05-26T04:24:07.058Z,5.20
2018-05-26T04:26:33.962Z,5.53
2018-05-26T04:29:00.827Z,5.60
2018-05-26T04:31:27.733Z,5.63
2018-05-26T04:33:54.626Z,5.13
2018-05-26T04:36:21.520Z,5.23
2018-05-26T04:38:48.397Z,5.30
2018-05-26T04:41:16.053Z,5.53
2018-05-26T04:43:42.928Z,6.10
2018-05-26T04:46:09.811Z,6.10
2018-05-26T04:48:37.485Z,5.77
2018-05-26T04:51:04.364Z,5.00
2018-05-26T04:53:31.240Z,5.13
2018-05-26T04:55:58.117Z,5.17
2018-05-26T04:58:24.992Z,5.20
2018-05-26T05:00:51.868Z,4.73
2018-05-26T05:03:18.749Z,5.23
2018-05-26T05:05:45.675Z,5.20
2018-05-26T05:08:12.541Z,4.50
2018-05-26T05:10:39.476Z,4.50
2018-05-26T05:13:06.360Z,4.97
2018-05-26T05:15:33.244Z,5.60
2018-05-26T05:18:00.169Z,5.10
2018-05-26T05:20:27.165Z,5.83
2018-05-26T05:22:54.037Z,5.50
2018-05-26T05:25:21.049Z,5.00
2018-05-26T05:27:47.972Z,6.33
2018-05-26T05:30:14.863Z,5.63
2018-05-26T05:32:42.480Z,5.40
2018-05-26T05:35:09.394Z,5.97
2018-05-26T05:37:37.064Z,5.80
2018-05-26T05:40:03.952Z,5.43
2018-05-26T05:42:30.832Z,5.43
2018-05-26T05:44:57.699Z,5.77
2018-05-26T05:47:24.588Z,6.23
2018-05-26T05:49:52.200Z,5.53
2018-05-26T05:52:19.077Z,5.90
2018-05-26T05:54:45.952Z,5.40
2018-05-26T05:57:13.578Z,5.07
2018-05-26T05:59:40.503Z,5.40
2018-05-26T06:02:07.405Z,5.53
2018-05-26T06:04:34.281Z,6.17
2018-05-26T06:07:01.900Z,5.80
2018-05-26T06:09:28.788Z,6.03
2018-05-26T06:11:55.709Z,6.60
2018-05-26T06:14:22.596Z,5.80
2018-05-26T06:16:49.489Z,5.60
2018-05-26T06:19:16.412Z,5.67
2018-05-26T06:21:43.292Z,5.20
2018-05-26T06:24:10.162Z,5.30
2018-05-26T06:26:37.077Z,5.30
2018-05-26T06:29:03.972Z,4.77
2018-05-26T06:31:30.838Z,5.30
2018-05-26T06:33:58.440Z,5.53
2018-05-26T06:36:25.313Z,5.30
2018-05-26T06:38:52.186Z,5.00
2018-05-26T06:41:19.829Z,5.50
2018-05-26T06:43:46.721Z,5.30
2018-05-26T06:46:13.608Z,5.87
2018-05-26T06:48:40.517Z,5.37
2018-05-26T06:51:07.402Z,5.47
2018-05-26T06:53:35.021Z,5.47
2018-05-26T06:56:01.945Z,5.00
2018-05-26T06:58:28.852Z,5.23
2018-05-26T07:00:55.732Z,5.47
2018-05-26T07:03:22.616Z,6.07
2018-05-26T07:05:49.509Z,6.20
2018-05-26T07:08:16.409Z,5.97
2018-05-26T07:10:43.280Z,5.80
2018-05-26T07:13:10.160Z,6.67
2018-05-26T07:15:37.256Z,5.43
2018-05-26T07:18:04.129Z,5.93
2018-05-26T07:20:31.031Z,6.03
2018-05-26T07:22:57.944Z,5.43
2018-05-26T07:25:24.852Z,5.83
2018-05-26T07:27:51.822Z,6.10
2018-05-26T07:30:18.768Z,5.77
2018-05-26T07:32:46.091Z,5.67
2018-05-26T07:35:12.997Z,5.57
2018-05-26T07:37:39.885Z,5.80
2018-05-26T07:40:07.806Z,5.23
2018-05-26T07:42:34.713Z,4.93
2018-05-26T07:45:01.812Z,4.50
2018-05-26T07:47:28.740Z,4.90
2018-05-26T07:49:57.268Z,4.97
2018-05-26T07:52:24.408Z,5.20
2018-05-26T07:54:51.282Z,4.53
2018-05-26T07:57:18.232Z,4.77
2018-05-26T07:59:45.135Z,4.60
2018-05-26T08:02:11.996Z,4.27
2018-05-26T08:04:39.611Z,5.20
2018-05-26T08:07:06.474Z,6.30
2018-05-26T08:09:33.340Z,6.43
2018-05-26T08:12:01.001Z,5.63
2018-05-26T08:14:28.613Z,5.90
2018-05-26T08:16:55.620Z,5.97
2018-05-26T08:19:22.516Z,5.63
2018-05-26T08:21:50.157Z,6.27
2018-05-26T08:24:17.163Z,5.10
2018-05-26T08:26:44.037Z,5.93
2018-05-26T08:29:10.956Z,5.40
2018-05-26T08:31:38.723Z,5.07
2018-05-26T08:34:05.602Z,5.07
2018-05-26T08:36:32.468Z,5.37
2018-05-26T08:38:59.349Z,5.87
2018-05-26T08:41:27.520Z,5.70
2018-05-26T08:43:54.916Z,5.60
2018-05-26T08:46:22.901Z,5.60
2018-05-26T08:48:50.791Z,4.87
2018-05-26T08:51:18.855Z,5.40
2018-05-26T08:53:46.538Z,5.43
2018-05-26T08:56:14.847Z,5.40
2018-05-26T08:58:42.345Z,5.00
2018-05-26T09:01:09.514Z,5.53
2018-05-26T09:03:37.751Z,5.53
2018-05-26T09:06:05.081Z,5.07
2018-05-26T09:08:32.875Z,5.43
2018-05-26T09:11:01.359Z,4.83
2018-05-26T09:13:29.899Z,5.97
2018-05-26T09:15:57.245Z,5.57
2018-05-26T09:18:24.467Z,5.63
2018-05-26T09:20:52.580Z,5.10
2018-05-26T09:23:19.945Z,5.63
2018-05-26T09:25:51.575Z,5.80
2018-05-26T09:28:19.247Z,6.07
2018-05-26T09:30:46.510Z,5.30
2018-05-26T09:33:15.394Z,5.53
2018-05-26T09:35:42.453Z,5.30
2018-05-26T09:38:09.748Z,5.80
2018-05-26T09:40:36.807Z,5.23
2018-05-26T09:43:03.673Z,4.43
2018-05-26T09:45:30.544Z,5.20
2018-05-26T09:47:57.432Z,5.90
2018-05-26T09:50:24.292Z,5.50
2018-05-26T09:52:51.160Z,5.20
2018-05-26T09:55:18.391Z,5.77
2018-05-26T09:57:45.443Z,5.10
2018-05-26T10:00:13.357Z,4.60
2018-05-26T10:02:40.248Z,4.40
2018-05-26T10:05:07.844Z,4.10
2018-05-26T10:07:34.712Z,3.93
2018-05-26T10:10:01.640Z,4.40
2018-05-26T10:12:28.497Z,4.20
2018-05-26T10:14:55.390Z,4.10
2018-05-26T10:17:22.991Z,3.47
2018-05-26T10:19:50.218Z,4.27
2018-05-26T10:22:17.077Z,4.17
2018-05-26T10:24:44.008Z,3.50
2018-05-26T10:27:11.356Z,3.90
2018-05-26T10:29:38.345Z,3.83
2018-05-26T10:32:05.209Z,4.40
2018-05-26T10:34:32.088Z,3.83
2018-05-26T10:36:58.952Z,3.60
2018-05-26T10:39:25.826Z,3.30
2018-05-26T10:42:02.894Z,3.80
2018-05-26T10:44:43.988Z,3.73
2018-05-26T10:47:10.996Z,4.23
2018-05-26T10:49:37.976Z,4.37
2018-05-26T10:52:06.380Z,4.23
2018-05-26T10:54:33.343Z,3.83
2018-05-26T10:57:00.241Z,4.00
2018-05-26T10:59:27.148Z,3.60
2018-05-26T11:01:54.048Z,3.70
2018-05-26T11:04:20.984Z,3.90
2018-05-26T11:06:47.856Z,3.97
2018-05-26T11:09:15.607Z,4.07
2018-05-26T11:11:44.759Z,3.80
2018-05-26T11:14:11.649Z,4.40
2018-05-26T11:16:38.675Z,4.43
2018-05-26T11:19:05.567Z,4.30
2018-05-26T11:21:32.437Z,4.90
2018-05-26T11:24:02.150Z,4.00
2018-05-26T11:26:30.543Z,4.43
2018-05-26T11:28:57.464Z,3.93
2018-05-26T11:31:24.364Z,4.40
2018-05-26T11:33:54.273Z,4.40
2018-05-26T11:36:21.926Z,5.37
2018-05-26T11:38:48.789Z,4.13
2018-05-26T11:41:15.667Z,5.17
2018-05-26T11:43:43.311Z,3.30
2018-05-26T11:46:12.984Z,3.53
2018-05-26T11:48:39.864Z,3.47
2018-05-26T11:51:08.784Z,3.90
2018-05-26T11:53:37.249Z,3.33
2018-05-26T11:56:05.308Z,4.00
2018-05-26T11:58:33.029Z,3.70
2018-05-26T12:01:02.668Z,3.60
2018-05-26T12:03:35.020Z,3.50
2018-05-26T12:06:02.854Z,3.63
2018-05-26T12:08:32.161Z,3.50
2018-05-26T12:11:00.969Z,4.40
2018-05-26T12:13:27.877Z,3.73
2018-05-26T12:15:54.740Z,4.03
2018-05-26T12:18:31.374Z,3.40
2018-05-26T12:20:59.685Z,3.60
2018-05-26T12:23:37.669Z,3.90
2018-05-26T12:26:19.627Z,3.90
2018-05-26T12:28:47.668Z,3.37
2018-05-26T12:31:14.599Z,4.50
2018-05-26T12:33:41.460Z,4.43
2018-05-26T12:36:08.348Z,4.07
2018-05-26T12:38:40.048Z,4.33
2018-05-26T12:41:08.199Z,4.20
2018-05-26T12:43:35.076Z,4.13
2018-05-26T12:46:01.971Z,4.27
2018-05-26T12:48:28.911Z,4.63
2018-05-26T12:50:55.808Z,4.50
2018-05-26T12:53:42.510Z,4.47
2018-05-26T12:56:09.383Z,4.47
2018-05-26T12:58:37.082Z,4.10
2018-05-26T13:01:04.052Z,4.23
2018-05-26T13:03:30.938Z,4.53
2018-05-26T13:05:59.320Z,4.90
2018-05-26T13:08:27.542Z,4.90
2018-05-26T13:10:54.594Z,5.23
2018-05-26T13:13:27.695Z,4.43
2018-05-26T13:15:55.445Z,5.30
2018-05-26T13:18:22.377Z,5.20
2018-05-26T13:20:49.241Z,5.03
2018-05-26T13:23:16.140Z,4.80
2018-05-26T13:25:43.599Z,5.80
2018-05-26T13:28:12.390Z,5.30
2018-05-26T13:30:40.158Z,4.47
2018-05-26T13:33:08.057Z,4.40
2018-05-26T13:35:34.924Z,4.83
2018-05-26T13:38:04.415Z,5.53
2018-05-26T13:40:31.373Z,5.43
2018-05-26T13:42:58.972Z,5.93
2018-05-26T13:45:29.682Z,5.00
2018-05-26T13:47:57.428Z,5.50
2018-05-26T13:50:25.980Z,5.47
2018-05-26T13:52:53.621Z,4.63
2018-05-26T13:55:20.861Z,5.40
2018-05-26T13:57:47.700Z,5.00
2018-05-26T14:00:14.573Z,5.40
2018-05-26T14:02:42.004Z,5.30
2018-05-26T14:05:11.052Z,4.97
2018-05-26T14:07:45.990Z,5.27
2018-05-26T14:10:13.597Z,6.17
2018-05-26T14:12:48.213Z,6.10
2018-05-26T14:15:18.356Z,5.87
2018-05-26T14:17:47.938Z,6.13
2018-05-26T14:20:21.473Z,5.90
2018-05-26T14:22:52.264Z,6.17
2018-05-26T14:25:22.700Z,6.10
2018-05-26T14:27:51.128Z,6.03
2018-05-26T14:30:18.020Z,6.43
2018-05-26T14:32:46.134Z,6.40
2018-05-26T14:35:16.956Z,6.50
2018-05-26T14:37:43.818Z,5.87
2018-05-26T14:40:10.717Z,6.70
2018-05-26T14:42:37.658Z,6.80
2018-05-26T14:45:04.556Z,6.47
2018-05-26T14:47:31.424Z,5.97
2018-05-26T14:50:07.785Z,5.97
2018-05-26T14:52:35.829Z,6.90
2018-05-26T14:55:02.800Z,6.20
2018-05-26T15:00:28.795Z,7.47
2018-05-26T15:02:56.815Z,7.23
2018-05-26T15:05:23.676Z,6.63
2018-05-26T15:07:50.796Z,6.63
2018-05-26T15:10:17.669Z,6.87
2018-05-26T15:12:44.612Z,6.83
2018-05-26T15:15:12.242Z,7.00
2018-05-26T15:17:39.140Z,6.70
2018-05-26T15:20:07.281Z,7.00
2018-05-26T15:22:34.187Z,6.93
2018-05-26T15:25:01.064Z,6.77
2018-05-26T15:27:27.932Z,6.63
2018-05-26T15:29:54.810Z,5.57
2018-05-26T15:32:21.681Z,6.57
2018-05-26T15:34:48.563Z,6.33
2018-05-26T15:37:15.452Z,7.10
2018-05-26T15:39:42.373Z,7.20
2018-05-26T15:42:09.255Z,6.97
2018-05-26T15:44:36.124Z,5.87
2018-05-26T15:47:02.999Z,6.10
2018-05-26T15:49:29.903Z,5.90
2018-05-26T15:51:57.525Z,6.03
2018-05-26T15:54:24.420Z,5.97
2018-05-26T15:56:53.048Z,5.90
2018-05-26T15:59:23.576Z,6.00
2018-05-26T16:01:53.392Z,6.07
2018-05-26T16:04:20.361Z,5.97
2018-05-26T16:06:47.977Z,5.60
2018-05-26T16:09:14.853Z,6.10
2018-05-26T16:11:41.728Z,6.17
2018-05-26T16:14:08.676Z,6.00
2018-05-26T16:16:35.540Z,6.10
2018-05-26T16:19:02.570Z,5.73
2018-05-26T16:21:29.488Z,6.00
2018-05-26T16:23:56.445Z,5.20
2018-05-26T16:26:24.072Z,6.00
2018-05-26T16:28:50.993Z,4.60
2018-05-26T16:31:17.884Z,5.43
2018-05-26T16:33:45.504Z,5.63
2018-05-26T16:36:12.654Z,5.73
2018-05-26T16:38:39.520Z,5.33
2018-05-26T16:41:06.432Z,5.47
2018-05-26T16:43:33.318Z,4.93
2018-05-26T16:46:01.473Z,6.20
2018-05-26T16:48:28.324Z,6.10
2018-05-26T16:50:55.232Z,5.33
2018-05-26T16:53:22.557Z,5.10
2018-05-26T16:55:49.452Z,5.47
2018-05-26T16:58:16.378Z,5.23
2018-05-26T17:00:44.112Z,6.83
2018-05-26T17:03:11.004Z,5.73
2018-05-26T17:05:37.916Z,5.37
2018-05-26T17:08:04.782Z,5.60
2018-05-26T17:10:32.325Z,6.10
2018-05-26T17:12:59.215Z,4.60
2018-05-26T17:15:26.096Z,6.10
2018-05-26T17:17:54.025Z,5.60
2018-05-26T17:20:21.281Z,5.53
2018-05-26T17:22:48.204Z,5.70
2018-05-26T17:25:15.073Z,5.33
2018-05-26T17:27:41.945Z,5.63
2018-05-26T17:30:08.905Z,5.53
2018-05-26T17:32:35.774Z,5.60
2018-05-26T17:35:03.107Z,6.53
2018-05-26T17:37:30.083Z,5.90
2018-05-26T17:39:56.976Z,6.27
2018-05-26T17:42:23.892Z,5.87
2018-05-26T17:44:50.802Z,6.03
2018-05-26T17:47:17.714Z,5.17
2018-05-26T17:49:44.616Z,6.10
2018-05-26T17:52:11.498Z,5.47
2018-05-26T17:54:38.356Z,6.43
2018-05-26T17:57:05.252Z,5.43
2018-05-26T17:59:32.129Z,6.13
2018-05-26T18:01:59.056Z,5.93
2018-05-26T18:04:25.937Z,5.90
2018-05-26T18:06:52.820Z,6.17
2018-05-26T18:09:19.750Z,6.00
2018-05-26T18:11:46.628Z,6.23
2018-05-26T18:14:13.500Z,6.27
2018-05-26T18:16:40.392Z,6.57
2018-05-26T18:19:07.256Z,6.33
2018-05-26T18:21:34.952Z,5.63
2018-05-26T18:24:01.825Z,6.13
2018-05-26T18:26:28.716Z,6.03
2018-05-26T18:28:55.597Z,6.33
2018-05-26T18:31:25.113Z,5.97
2018-05-26T18:33:52.945Z,6.43
2018-05-26T18:36:19.837Z,6.00
2018-05-26T18:38:46.712Z,6.30
2018-05-26T18:41:14.506Z,6.50
2018-05-26T18:43:41.416Z,6.40
2018-05-26T18:46:08.357Z,6.53
2018-05-26T18:48:35.324Z,6.13
2018-05-26T18:51:02.296Z,6.43
2018-05-26T18:53:30.521Z,6.40
2018-05-26T18:55:59.031Z,6.80
2018-05-26T18:58:26.640Z,6.97
2018-05-26T19:00:53.681Z,6.97
2018-05-26T19:03:20.654Z,8.63
2018-05-26T19:05:49.317Z,8.10
2018-05-26T19:08:16.304Z,8.83
2018-05-26T19:10:43.233Z,8.77
2018-05-26T19:13:10.148Z,8.10
2018-05-26T19:15:37.082Z,8.30
2018-05-26T19:18:04.055Z,10.83
2018-05-26T19:20:31.848Z,12.10
2018-05-26T19:22:58.920Z,11.70
2018-05-26T19:25:25.925Z,10.77
2018-05-26T19:27:53.546Z,8.23
2018-05-26T19:30:20.446Z,7.93
2018-05-26T19:32:47.723Z,8.03
2018-05-26T19:35:14.742Z,7.80
2018-05-26T19:37:41.608Z,8.00
2018-05-26T19:40:08.564Z,7.63
2018-05-26T19:42:35.536Z,7.57
2018-05-26T19:45:02.502Z,8.20
2018-05-26T19:47:30.293Z,8.17
2018-05-26T19:49:57.301Z,8.20
2018-05-26T19:52:24.660Z,8.47
2018-05-26T19:54:51.649Z,7.63
2018-05-26T19:57:18.542Z,7.60
2018-05-26T19:59:45.427Z,8.20
2018-05-26T20:02:12.300Z,7.67
2018-05-26T20:04:39.225Z,7.83
2018-05-26T20:07:06.126Z,8.50
2018-05-26T20:09:33.105Z,7.73
2018-05-26T20:12:00.169Z,7.60
2018-05-26T20:14:27.105Z,8.00
2018-05-26T20:16:54.021Z,8.30
2018-05-26T20:19:21.705Z,7.93
2018-05-26T20:21:48.904Z,8.37
2018-05-26T20:24:15.843Z,7.50
2018-05-26T20:26:43.606Z,7.60
2018-05-26T20:29:10.531Z,8.03
2018-05-26T20:31:37.633Z,8.60
2018-05-26T20:34:04.536Z,7.37
2018-05-26T20:36:31.412Z,8.30
2018-05-26T20:38:58.284Z,8.53
2018-05-26T20:41:25.208Z,8.47
2018-05-26T20:43:53.233Z,8.50
2018-05-26T20:46:20.561Z,8.23
2018-05-26T20:48:47.497Z,8.63
2018-05-26T20:51:14.363Z,8.20
2018-05-26T20:53:41.279Z,8.73
2018-05-26T20:56:08.168Z,9.37
2018-05-26T20:58:35.040Z,9.17
2018-05-26T21:01:01.953Z,9.00
2018-05-26T21:03:29.035Z,8.40
2018-05-26T21:05:56.267Z,9.53
2018-05-26T21:08:23.899Z,9.93
2018-05-26T21:10:50.766Z,10.53
2018-05-26T21:13:17.661Z,12.93
2018-05-26T21:15:44.603Z,18.00
2018-05-26T21:18:11.601Z,24.43
2018-05-26T21:20:38.485Z,22.27
2018-05-26T21:23:05.349Z,11.37
2018-05-26T21:25:32.354Z,8.90
2018-05-26T21:27:59.888Z,8.63
2018-05-26T21:30:27.544Z,9.00
2018-05-26T21:32:54.408Z,11.50
2018-05-26T21:35:21.353Z,8.90
2018-05-26T21:37:48.268Z,9.03
2018-05-26T21:40:15.180Z,9.63
2018-05-26T21:42:42.349Z,8.90
2018-05-26T21:45:09.275Z,9.27
2018-05-26T21:47:36.244Z,9.07
2018-05-26T21:50:03.167Z,9.60
2018-05-26T21:52:30.105Z,7.67
2018-05-26T21:54:57.010Z,8.10
2018-05-26T21:57:23.884Z,7.87
2018-05-26T21:59:51.489Z,8.10
2018-05-26T22:02:18.370Z,8.27
2018-05-26T22:04:45.235Z,8.43
2018-05-26T22:07:12.113Z,7.57
2018-05-26T22:09:38.996Z,7.60
2018-05-26T22:12:12.427Z,8.33
2018-05-26T22:14:42.667Z,8.03
2018-05-26T22:17:16.468Z,7.87
2018-05-26T22:19:47.777Z,7.55
2018-05-26T22:22:20.284Z,7.13
2018-05-26T22:27:26.668Z,8.00
2018-05-26T22:29:58.434Z,8.30
2018-05-26T22:32:33.077Z,7.83
2018-05-26T22:35:02.923Z,8.43
2018-05-26T22:37:35.673Z,8.03
2018-05-26T22:40:06.115Z,8.20
2018-05-26T22:42:37.200Z,7.00
2018-05-26T22:45:12.453Z,7.59
2018-05-26T22:47:42.551Z,7.50
2018-05-26T22:50:11.468Z,7.33
2018-05-26T22:52:41.894Z,6.95
2018-05-26T22:57:45.546Z,7.53
2018-05-26T23:00:17.463Z,7.50
2018-05-26T23:02:50.892Z,7.13
2018-05-26T23:05:17.849Z,7.23
2018-05-26T23:07:44.841Z,7.93
2018-05-26T23:10:13.952Z,7.60
2018-05-26T23:12:40.910Z,7.53
2018-05-26T23:15:07.833Z,6.50
2018-05-26T23:17:35.388Z,7.37
2018-05-26T23:20:11.479Z,8.10
2018-05-26T23:22:38.446Z,7.57
2018-05-26T23:25:05.846Z,7.23
2018-05-26T23:27:32.757Z,7.20
2018-05-26T23:30:06.261Z,7.93
2018-05-26T23:32:36.035Z,7.67
2018-05-26T23:35:07.112Z,7.37
2018-05-26T23:37:34.007Z,7.70
2018-05-26T23:40:07.812Z,7.90
2018-05-26T23:42:39.695Z,8.33
2018-05-26T23:45:07.362Z,7.77
2018-05-26T23:47:35.366Z,7.03
2018-05-26T23:50:09.723Z,8.63
2018-05-26T23:52:44.324Z,7.60
2018-05-26T23:57:57.014Z,7.40
